createdAt,value
2017-02-18T00:00:18.054Z,80.86
2017-02-18T00:00:46.194Z,81.05
2017-02-18T00:01:14.422Z,80.95
2017-02-18T00:01:42.521Z,80.66
2017-02-18T00:02:10.847Z,80.18
2017-02-18T00:02:39.042Z,80.76
2017-02-18T00:03:07.133Z,80.66
2017-02-18T00:03:35.230Z,80.57
2017-02-18T00:04:03.293Z,81.05
2017-02-18T00:04:31.415Z,80.86
2017-02-18T00:04:59.679Z,80.76
2017-02-18T00:05:27.863Z,80.86
2017-02-18T00:05:55.976Z,80.47
2017-02-18T00:06:23.826Z,81.15
2017-02-18T00:06:52.047Z,80.57
2017-02-18T00:07:20.341Z,80.86
2017-02-18T00:07:48.434Z,80.28
2017-02-18T00:08:16.689Z,80.95
2017-02-18T00:08:44.744Z,81.05
2017-02-18T00:09:12.940Z,81.15
2017-02-18T00:09:40.991Z,80.95
2017-02-18T00:10:09.167Z,81.15
2017-02-18T00:10:37.226Z,80.76
2017-02-18T00:11:05.433Z,80.95
2017-02-18T00:11:48.084Z,81.05
2017-02-18T00:12:16.251Z,81.05
2017-02-18T00:12:44.524Z,80.95
2017-02-18T00:13:12.674Z,81.05
2017-02-18T00:13:40.843Z,80.95
2017-02-18T00:14:09.018Z,80.95
2017-02-18T00:14:37.058Z,80.95
2017-02-18T00:15:04.996Z,81.34
2017-02-18T00:15:32.917Z,80.95
2017-02-18T00:16:01.221Z,80.86
2017-02-18T00:16:29.557Z,81.05
2017-02-18T00:16:57.770Z,81.05
2017-02-18T00:17:25.976Z,80.76
2017-02-18T00:17:54.126Z,81.15
2017-02-18T00:18:22.254Z,80.86
2017-02-18T00:18:50.345Z,80.95
2017-02-18T00:19:18.470Z,80.66
2017-02-18T00:19:46.488Z,80.95
2017-02-18T00:20:14.683Z,80.95
2017-02-18T00:20:42.883Z,80.95
2017-02-18T00:21:11.120Z,81.53
2017-02-18T00:21:39.162Z,81.63
2017-02-18T00:22:07.406Z,81.53
2017-02-18T00:22:35.508Z,81.05
2017-02-18T00:23:03.607Z,81.53
2017-02-18T00:23:31.733Z,81.53
2017-02-18T00:23:59.962Z,81.34
2017-02-18T00:24:28.052Z,81.44
2017-02-18T00:24:56.224Z,81.15
2017-02-18T00:25:24.345Z,81.73
2017-02-18T00:25:52.526Z,81.44
2017-02-18T00:26:20.636Z,81.15
2017-02-18T00:26:48.785Z,81.24
2017-02-18T00:27:16.917Z,81.05
2017-02-18T00:27:45.196Z,81.34
2017-02-18T00:28:13.419Z,81.53
2017-02-18T00:28:41.656Z,81.24
2017-02-18T00:29:09.852Z,81.34
2017-02-18T00:29:37.969Z,81.44
2017-02-18T00:30:06.187Z,81.73
2017-02-18T00:30:34.260Z,81.44
2017-02-18T00:31:02.408Z,81.44
2017-02-18T00:31:30.639Z,81.34
2017-02-18T00:31:58.633Z,81.24
2017-02-18T00:32:26.833Z,81.63
2017-02-18T00:32:54.895Z,81.05
2017-02-18T00:33:23.138Z,81.63
2017-02-18T00:33:51.282Z,81.34
2017-02-18T00:34:19.330Z,81.34
2017-02-18T00:34:47.419Z,81.44
2017-02-18T00:35:15.581Z,81.05
2017-02-18T00:35:43.723Z,81.53
2017-02-18T00:36:11.922Z,81.44
2017-02-18T00:36:40.101Z,81.63
2017-02-18T00:37:08.095Z,81.63
2017-02-18T00:37:36.397Z,81.63
2017-02-18T00:38:04.474Z,81.44
2017-02-18T00:38:32.526Z,81.53
2017-02-18T00:39:00.596Z,81.15
2017-02-18T00:39:28.867Z,81.44
2017-02-18T00:39:57.042Z,81.24
2017-02-18T00:40:25.200Z,81.24
2017-02-18T00:40:53.301Z,81.63
2017-02-18T00:41:21.402Z,81.73
2017-02-18T00:41:49.604Z,81.44
2017-02-18T00:42:17.901Z,81.29
2017-02-18T00:42:46.112Z,80.99
2017-02-18T00:43:14.345Z,80.9
2017-02-18T00:43:42.507Z,81.15
2017-02-18T00:44:10.595Z,80.8
2017-02-18T00:44:38.731Z,81.09
2017-02-18T00:45:06.904Z,81.09
2017-02-18T00:45:34.804Z,81.19
2017-02-18T00:46:02.853Z,80.9
2017-02-18T00:46:30.963Z,81.09
2017-02-18T00:46:58.980Z,81.09
2017-02-18T00:47:27.084Z,80.51
2017-02-18T00:47:55.166Z,80.9
2017-02-18T00:48:23.243Z,80.8
2017-02-18T00:48:50.994Z,80.32
2017-02-18T00:49:18.954Z,80.71
2017-02-18T00:49:47.059Z,80.41
2017-02-18T00:50:15.325Z,81.05
2017-02-18T00:50:43.551Z,80.61
2017-02-18T00:51:11.766Z,80.61
2017-02-18T00:51:39.919Z,80.71
2017-02-18T00:52:08.119Z,80.41
2017-02-18T00:52:36.408Z,80.51
2017-02-18T00:53:04.633Z,80.41
2017-02-18T00:53:32.606Z,80.41
2017-02-18T00:54:00.769Z,79.93
2017-02-18T00:54:28.826Z,80.22
2017-02-18T00:54:56.886Z,79.74
2017-02-18T00:55:25.067Z,79.74
2017-02-18T00:55:53.142Z,79.64
2017-02-18T00:56:21.168Z,79.35
2017-02-18T00:56:49.226Z,79.06
2017-02-18T00:57:17.307Z,78.77
2017-02-18T00:57:45.585Z,78.96
2017-02-18T00:58:13.687Z,79.06
2017-02-18T00:58:41.916Z,78.87
2017-02-18T00:59:09.975Z,78.96
2017-02-18T00:59:38.167Z,78.96
2017-02-18T01:00:06.305Z,78.96
2017-02-18T01:00:34.208Z,79.16
2017-02-18T01:01:02.409Z,78.77
2017-02-18T01:01:30.465Z,78.96
2017-02-18T01:01:58.412Z,78.87
2017-02-18T01:02:26.522Z,78.87
2017-02-18T01:02:54.893Z,79.45
2017-02-18T01:03:22.833Z,79.16
2017-02-18T01:03:50.986Z,79.64
2017-02-18T01:04:19.119Z,79.74
2017-02-18T01:04:47.222Z,79.83
2017-02-18T01:05:15.389Z,79.83
2017-02-18T01:05:43.352Z,80.03
2017-02-18T01:06:11.292Z,79.74
2017-02-18T01:06:39.457Z,79.83
2017-02-18T01:07:07.671Z,79.64
2017-02-18T01:07:36.065Z,79.64
2017-02-18T01:08:04.207Z,79.74
2017-02-18T01:08:32.264Z,79.93
2017-02-18T01:09:00.438Z,79.54
2017-02-18T01:09:28.639Z,79.74
2017-02-18T01:09:56.966Z,79.83
2017-02-18T01:10:24.958Z,79.83
2017-02-18T01:10:52.984Z,79.93
2017-02-18T01:11:21.133Z,79.64
2017-02-18T01:11:49.328Z,79.93
2017-02-18T01:12:17.463Z,80.22
2017-02-18T01:12:45.836Z,80.51
2017-02-18T01:13:14.078Z,80.57
2017-02-18T01:13:42.121Z,80.38
2017-02-18T01:14:10.329Z,80.08
2017-02-18T01:14:38.492Z,80.76
2017-02-18T01:15:06.589Z,80.47
2017-02-18T01:15:34.788Z,80.47
2017-02-18T01:16:03.003Z,80.66
2017-02-18T01:16:31.245Z,80.47
2017-02-18T01:16:59.159Z,81.15
2017-02-18T01:17:27.353Z,81.15
2017-02-18T01:17:55.712Z,80.76
2017-02-18T01:18:23.891Z,81.05
2017-02-18T01:18:52.131Z,80.76
2017-02-18T01:19:20.297Z,80.76
2017-02-18T01:19:48.481Z,81.63
2017-02-18T01:20:16.543Z,81.63
2017-02-18T01:20:44.626Z,81.44
2017-02-18T01:21:12.787Z,81.63
2017-02-18T01:21:40.669Z,81.82
2017-02-18T01:22:08.784Z,81.92
2017-02-18T01:22:36.913Z,81.63
2017-02-18T01:23:05.090Z,81.53
2017-02-18T01:23:33.110Z,81.63
2017-02-18T01:24:01.187Z,82.02
2017-02-18T01:24:29.259Z,81.53
2017-02-18T01:24:57.400Z,82.4
2017-02-18T01:25:25.634Z,82.31
2017-02-18T01:25:53.613Z,81.53
2017-02-18T01:26:21.586Z,81.82
2017-02-18T01:26:49.625Z,81.68
2017-02-18T01:27:17.578Z,82.02
2017-02-18T01:27:45.687Z,82.31
2017-02-18T01:28:13.986Z,82.21
2017-02-18T01:28:42.119Z,81.82
2017-02-18T01:29:10.092Z,81.92
2017-02-18T01:29:38.108Z,81.82
2017-02-18T01:30:06.328Z,81.82
2017-02-18T01:30:34.409Z,82.21
2017-02-18T01:31:02.556Z,82.11
2017-02-18T01:31:30.794Z,81.82
2017-02-18T01:31:58.781Z,82.31
2017-02-18T01:32:26.949Z,82.07
2017-02-18T01:32:55.267Z,81.88
2017-02-18T01:33:23.453Z,81.49
2017-02-18T01:33:51.590Z,82.36
2017-02-18T01:34:19.796Z,82.36
2017-02-18T01:34:47.799Z,81.98
2017-02-18T01:35:15.827Z,82.17
2017-02-18T01:35:44.048Z,82.94
2017-02-18T01:36:12.312Z,82.75
2017-02-18T01:36:40.565Z,82.75
2017-02-18T01:37:08.519Z,83.23
2017-02-18T01:37:36.569Z,83.14
2017-02-18T01:38:04.700Z,83.04
2017-02-18T01:38:32.793Z,83.04
2017-02-18T01:39:00.839Z,82.94
2017-02-18T01:39:28.689Z,83.14
2017-02-18T01:39:56.878Z,83.62
2017-02-18T01:40:25.008Z,83.42
2017-02-18T01:40:53.227Z,83.52
2017-02-18T01:41:21.336Z,83.72
2017-02-18T01:41:49.496Z,83.62
2017-02-18T01:42:17.512Z,83.81
2017-02-18T01:42:45.774Z,83.81
2017-02-18T01:43:13.919Z,83.72
2017-02-18T01:43:42.043Z,83.52
2017-02-18T01:44:10.291Z,83.52
2017-02-18T01:44:38.501Z,83.52
2017-02-18T01:45:06.616Z,84.2
2017-02-18T01:45:34.912Z,84
2017-02-18T01:46:03.055Z,83.81
2017-02-18T01:46:31.354Z,84
2017-02-18T01:46:59.562Z,84
2017-02-18T01:47:27.669Z,84
2017-02-18T01:47:55.771Z,84.3
2017-02-18T01:48:24.160Z,84.1
2017-02-18T01:48:52.432Z,84.3
2017-02-18T01:49:20.665Z,83.91
2017-02-18T01:49:48.622Z,84.58
2017-02-18T01:50:16.856Z,84.68
2017-02-18T01:50:44.946Z,84.48
2017-02-18T01:51:12.945Z,84.48
2017-02-18T01:51:40.961Z,84.58
2017-02-18T01:52:09.135Z,84.68
2017-02-18T01:52:37.227Z,84.58
2017-02-18T01:53:05.614Z,84.58
2017-02-18T01:53:33.934Z,84.58
2017-02-18T01:54:02.144Z,84.58
2017-02-18T01:54:30.359Z,84.78
2017-02-18T01:54:58.390Z,84.88
2017-02-18T01:55:26.469Z,84.78
2017-02-18T01:55:54.661Z,84.97
2017-02-18T01:56:22.848Z,84.78
2017-02-18T01:56:51.024Z,85.16
2017-02-18T01:57:19.311Z,85.16
2017-02-18T01:57:47.505Z,85.16
2017-02-18T01:58:15.404Z,85.02
2017-02-18T01:58:43.502Z,85.5
2017-02-18T01:59:11.681Z,85.12
2017-02-18T01:59:39.768Z,85.6
2017-02-18T02:00:07.788Z,85.45
2017-02-18T02:00:35.995Z,85.22
2017-02-18T02:01:04.189Z,85.36
2017-02-18T02:01:32.290Z,85.5
2017-02-18T02:02:00.357Z,85.64
2017-02-18T02:02:28.373Z,85.89
2017-02-18T02:02:56.316Z,85.6
2017-02-18T02:03:24.511Z,85.7
2017-02-18T02:03:52.655Z,85.8
2017-02-18T02:04:20.801Z,85.99
2017-02-18T02:04:49.045Z,85.8
2017-02-18T02:05:17.195Z,85.8
2017-02-18T02:05:45.283Z,85.8
2017-02-18T02:06:13.524Z,86.18
2017-02-18T02:06:41.463Z,86.08
2017-02-18T02:07:09.626Z,85.99
2017-02-18T02:07:37.673Z,86.28
2017-02-18T02:08:05.713Z,86.08
2017-02-18T02:08:33.930Z,86.08
2017-02-18T02:09:02.142Z,86.66
2017-02-18T02:09:30.266Z,86.76
2017-02-18T02:09:58.392Z,86.47
2017-02-18T02:10:26.507Z,86.86
2017-02-18T02:10:54.563Z,86.66
2017-02-18T02:11:22.743Z,86.86
2017-02-18T02:11:50.730Z,87.24
2017-02-18T02:12:18.957Z,87.15
2017-02-18T02:12:47.177Z,87.44
2017-02-18T02:13:15.206Z,87.05
2017-02-18T02:13:43.432Z,88.11
2017-02-18T02:14:11.537Z,87.92
2017-02-18T02:14:39.660Z,87.63
2017-02-18T02:15:07.749Z,87.82
2017-02-18T02:15:35.919Z,88.21
2017-02-18T02:16:03.982Z,88.5
2017-02-18T02:16:32.123Z,88.5
2017-02-18T02:17:00.336Z,88.79
2017-02-18T02:17:28.462Z,88.69
2017-02-18T02:17:56.665Z,88.98
2017-02-18T02:18:24.862Z,89.56
2017-02-18T02:18:53.017Z,89.17
2017-02-18T02:19:21.228Z,89.27
2017-02-18T02:19:49.439Z,89.95
2017-02-18T02:20:17.471Z,89.95
2017-02-18T02:20:45.518Z,90.33
2017-02-18T02:21:13.556Z,90.23
2017-02-18T02:21:41.659Z,90.14
2017-02-18T02:22:09.860Z,89.95
2017-02-18T02:22:37.947Z,90.14
2017-02-18T02:23:06.034Z,90.62
2017-02-18T02:23:34.215Z,90.91
2017-02-18T02:24:02.418Z,91.49
2017-02-18T02:24:30.399Z,91.2
2017-02-18T02:24:58.537Z,91.11
2017-02-18T02:25:26.730Z,91.78
2017-02-18T02:25:54.848Z,91.74
2017-02-18T02:26:22.990Z,91.78
2017-02-18T02:26:50.947Z,91.35
2017-02-18T02:27:19.041Z,91.83
2017-02-18T02:27:46.960Z,91.54
2017-02-18T02:28:15.151Z,91.64
2017-02-18T02:28:43.280Z,92.02
2017-02-18T02:29:11.495Z,92.5
2017-02-18T02:29:39.943Z,92.32
2017-02-18T02:30:08.031Z,92.12
2017-02-18T02:30:35.971Z,92.22
2017-02-18T02:31:04.129Z,92.7
2017-02-18T02:31:32.222Z,92.6
2017-02-18T02:32:00.405Z,92.8
2017-02-18T02:32:28.532Z,93.08
2017-02-18T02:32:56.641Z,93.47
2017-02-18T02:33:24.804Z,93.28
2017-02-18T02:33:53.047Z,94.15
2017-02-18T02:34:21.123Z,93.85
2017-02-18T02:34:49.311Z,93.47
2017-02-18T02:35:17.402Z,94.24
2017-02-18T02:35:45.427Z,94.05
2017-02-18T02:36:13.514Z,94.24
2017-02-18T02:36:41.627Z,94.34
2017-02-18T02:37:09.850Z,94.34
2017-02-18T02:37:37.972Z,94.24
2017-02-18T02:38:06.089Z,94.82
2017-02-18T02:38:34.239Z,94.63
2017-02-18T02:39:02.626Z,94.92
2017-02-18T02:39:30.716Z,95.01
2017-02-18T02:39:58.837Z,95.5
2017-02-18T02:40:26.902Z,95.4
2017-02-18T02:40:54.976Z,95.59
2017-02-18T02:41:23.157Z,95.69
2017-02-18T02:41:51.291Z,95.88
2017-02-18T02:42:19.290Z,95.69
2017-02-18T02:42:47.406Z,95.54
2017-02-18T02:43:15.618Z,95.31
2017-02-18T02:43:43.769Z,96.03
2017-02-18T02:44:11.917Z,95.88
2017-02-18T02:44:40.111Z,96.46
2017-02-18T02:45:08.224Z,96.56
2017-02-18T02:45:36.442Z,96.46
2017-02-18T02:46:04.482Z,96.17
2017-02-18T02:46:32.597Z,96.75
2017-02-18T02:47:00.795Z,96.84
2017-02-18T02:47:28.922Z,96.75
2017-02-18T02:47:56.945Z,96.46
2017-02-18T02:48:24.705Z,96.56
2017-02-18T02:48:52.965Z,96.75
2017-02-18T02:49:21.134Z,96.75
2017-02-18T02:49:49.181Z,96.8
2017-02-18T02:50:17.365Z,96.99
2017-02-18T02:50:45.438Z,96.41
2017-02-18T02:51:13.592Z,96.8
2017-02-18T02:51:41.768Z,96.7
2017-02-18T02:52:09.972Z,96.99
2017-02-18T02:52:38.136Z,96.89
2017-02-18T02:53:06.146Z,97.28
2017-02-18T02:53:34.117Z,97.38
2017-02-18T02:54:02.451Z,97.38
2017-02-18T02:54:30.565Z,97.28
2017-02-18T02:54:58.777Z,96.99
2017-02-18T02:55:27.042Z,97.19
2017-02-18T02:55:55.127Z,97.09
2017-02-18T02:56:23.270Z,97.28
2017-02-18T02:56:51.347Z,97.19
2017-02-18T02:57:19.558Z,97.19
2017-02-18T02:57:47.785Z,97.57
2017-02-18T02:58:15.877Z,97.38
2017-02-18T02:58:44.121Z,97.77
2017-02-18T02:59:12.231Z,97.72
2017-02-18T02:59:40.225Z,97.81
2017-02-18T03:00:08.283Z,98.15
2017-02-18T03:00:36.416Z,98.2
2017-02-18T03:01:04.486Z,97.86
2017-02-18T03:01:32.482Z,98.05
2017-02-18T03:02:00.733Z,98.25
2017-02-18T03:02:28.785Z,97.96
2017-02-18T03:02:56.870Z,98.05
2017-02-18T03:03:25.075Z,98.15
2017-02-18T03:03:53.176Z,98.25
2017-02-18T03:04:21.294Z,98
2017-02-18T03:04:49.409Z,98.63
2017-02-18T03:05:17.524Z,98.63
2017-02-18T03:05:45.639Z,99.11
2017-02-18T03:06:13.648Z,98.92
2017-02-18T03:06:41.749Z,98.87
2017-02-18T03:07:09.978Z,98.82
2017-02-18T03:07:38.127Z,99.02
2017-02-18T03:08:06.339Z,98.77
2017-02-18T03:08:34.414Z,98.82
2017-02-18T03:09:02.621Z,98.92
2017-02-18T03:09:30.730Z,99.3
2017-02-18T03:09:58.860Z,98.97
2017-02-18T03:10:27.060Z,98.77
2017-02-18T03:10:54.999Z,99.4
2017-02-18T03:11:23.160Z,99.3
2017-02-18T03:11:51.245Z,99.98
2017-02-18T03:12:19.437Z,99.6
2017-02-18T03:12:47.479Z,99.79
2017-02-18T03:13:15.585Z,99.88
2017-02-18T03:13:43.690Z,99.69
2017-02-18T03:14:11.827Z,99.99
2017-02-18T03:14:39.844Z,99.99
2017-02-18T03:15:07.854Z,99.99
2017-02-18T03:15:35.913Z,99.99
2017-02-18T03:16:04.057Z,99.74
2017-02-18T03:16:32.188Z,99.69
2017-02-18T03:17:00.419Z,99.98
2017-02-18T03:17:28.489Z,99.84
2017-02-18T03:17:56.579Z,99.99
2017-02-18T03:18:24.713Z,99.6
2017-02-18T03:18:52.855Z,99.84
2017-02-18T03:19:20.971Z,99.99
2017-02-18T03:19:49.140Z,99.99
2017-02-18T03:20:17.284Z,99.99
2017-02-18T03:20:45.404Z,99.99
2017-02-18T03:21:13.522Z,99.99
2017-02-18T03:21:41.726Z,99.99
2017-02-18T03:22:09.753Z,99.99
2017-02-18T03:22:37.902Z,99.99
2017-02-18T03:23:05.890Z,99.99
2017-02-18T03:23:34.031Z,99.99
2017-02-18T03:24:02.144Z,99.99
2017-02-18T03:24:30.366Z,99.99
2017-02-18T03:24:58.424Z,99.99
2017-02-18T03:25:26.597Z,99.99
2017-02-18T03:25:54.884Z,99.99
2017-02-18T03:26:23.013Z,99.99
2017-02-18T03:26:51.159Z,99.99
2017-02-18T03:27:19.257Z,99.99
2017-02-18T03:27:47.385Z,99.99
2017-02-18T03:28:15.501Z,99.99
2017-02-18T03:28:43.634Z,99.99
2017-02-18T03:29:11.865Z,99.99
2017-02-18T03:29:39.948Z,99.99
2017-02-18T03:30:08.171Z,99.99
2017-02-18T03:30:36.387Z,99.99
2017-02-18T03:31:04.457Z,99.99
2017-02-18T03:31:32.492Z,99.99
2017-02-18T03:32:00.741Z,99.99
2017-02-18T03:32:28.772Z,99.99
2017-02-18T03:32:56.974Z,99.99
2017-02-18T03:33:25.170Z,99.99
2017-02-18T03:33:53.459Z,99.99
2017-02-18T03:34:21.820Z,99.99
2017-02-18T03:34:49.731Z,99.99
2017-02-18T03:35:17.959Z,99.99
2017-02-18T03:35:46.150Z,99.99
2017-02-18T03:36:14.285Z,99.99
2017-02-18T03:36:42.357Z,99.99
2017-02-18T03:37:10.571Z,99.99
2017-02-18T03:37:38.561Z,99.99
2017-02-18T03:38:06.834Z,99.99
2017-02-18T03:38:34.825Z,99.99
2017-02-18T03:39:02.828Z,99.99
2017-02-18T03:39:31.038Z,99.99
2017-02-18T03:39:59.147Z,99.99
2017-02-18T03:40:27.282Z,99.99
2017-02-18T03:40:55.275Z,99.99
2017-02-18T03:41:23.313Z,99.99
2017-02-18T03:41:51.440Z,99.99
2017-02-18T03:42:19.639Z,99.99
2017-02-18T03:42:47.737Z,99.99
2017-02-18T03:43:16.040Z,99.99
2017-02-18T03:43:44.196Z,99.99
2017-02-18T03:44:12.227Z,99.99
2017-02-18T03:44:40.544Z,99.99
2017-02-18T03:45:08.667Z,99.99
2017-02-18T03:45:36.718Z,99.99
2017-02-18T03:46:04.909Z,99.99
2017-02-18T03:46:32.983Z,99.99
2017-02-18T03:47:01.128Z,99.99
2017-02-18T03:47:29.452Z,99.99
2017-02-18T03:47:57.454Z,99.99
2017-02-18T03:48:25.339Z,99.99
2017-02-18T03:48:53.399Z,99.99
2017-02-18T03:49:21.630Z,99.99
2017-02-18T03:50:21.493Z,99.99
2017-02-18T03:50:49.548Z,99.99
2017-02-18T03:51:17.643Z,99.99
2017-02-18T03:51:45.727Z,99.99
2017-02-18T03:52:13.697Z,99.99
2017-02-18T03:52:41.839Z,99.99
2017-02-18T03:53:10.228Z,99.99
2017-02-18T03:53:38.437Z,99.99
2017-02-18T03:54:06.627Z,99.99
2017-02-18T03:54:34.968Z,99.99
2017-02-18T03:55:03.170Z,99.99
2017-02-18T03:55:31.144Z,99.99
2017-02-18T03:55:59.288Z,99.99
2017-02-18T03:56:27.313Z,99.99
2017-02-18T03:56:55.420Z,99.99
2017-02-18T03:57:23.538Z,99.99
2017-02-18T03:57:51.661Z,99.99
2017-02-18T03:58:19.694Z,99.99
2017-02-18T03:58:47.941Z,99.99
2017-02-18T03:59:16.067Z,99.99
2017-02-18T03:59:44.191Z,99.99
2017-02-18T04:00:12.268Z,99.99
2017-02-18T04:00:40.300Z,99.99
2017-02-18T04:01:08.455Z,99.99
2017-02-18T04:01:36.571Z,99.99
2017-02-18T04:02:04.700Z,99.99
2017-02-18T04:02:32.823Z,99.99
2017-02-18T04:03:00.939Z,99.99
2017-02-18T04:03:28.958Z,99.99
2017-02-18T04:03:57.063Z,99.99
2017-02-18T04:04:25.245Z,99.99
2017-02-18T04:04:53.365Z,99.99
2017-02-18T04:05:21.417Z,99.99
2017-02-18T04:05:49.551Z,99.99
2017-02-18T04:06:17.923Z,99.99
2017-02-18T04:06:46.029Z,99.99
2017-02-18T04:07:14.267Z,99.99
2017-02-18T04:07:42.399Z,99.99
2017-02-18T04:08:10.615Z,99.99
2017-02-18T04:08:38.613Z,99.99
2017-02-18T04:09:06.633Z,99.99
2017-02-18T04:09:34.729Z,99.99
2017-02-18T04:10:03.049Z,99.99
2017-02-18T04:10:31.254Z,99.99
2017-02-18T04:10:59.423Z,99.99
2017-02-18T04:11:27.579Z,99.99
2017-02-18T04:11:55.537Z,99.99
2017-02-18T04:12:23.742Z,99.99
2017-02-18T04:12:51.877Z,99.99
2017-02-18T04:13:20.058Z,99.99
2017-02-18T04:13:48.212Z,99.99
2017-02-18T04:14:16.357Z,99.99
2017-02-18T04:14:44.492Z,99.99
2017-02-18T04:15:12.766Z,99.99
2017-02-18T04:15:41.001Z,99.99
2017-02-18T04:16:08.981Z,99.99
2017-02-18T04:16:37.162Z,99.99
2017-02-18T04:17:05.290Z,99.99
2017-02-18T04:17:33.419Z,99.99
2017-02-18T04:18:01.675Z,99.99
2017-02-18T04:18:29.864Z,99.99
2017-02-18T04:18:58.034Z,99.99
2017-02-18T04:19:26.232Z,99.99
2017-02-18T04:19:54.383Z,99.99
2017-02-18T04:20:22.552Z,99.99
2017-02-18T04:20:50.615Z,99.99
2017-02-18T04:21:18.716Z,99.99
2017-02-18T04:21:46.906Z,99.99
2017-02-18T04:22:14.928Z,99.99
2017-02-18T04:22:43.148Z,99.99
2017-02-18T04:23:11.299Z,99.99
2017-02-18T04:23:39.495Z,99.99
2017-02-18T04:24:07.607Z,99.99
2017-02-18T04:24:35.796Z,99.99
2017-02-18T04:25:04.020Z,99.99
2017-02-18T04:25:32.273Z,99.99
2017-02-18T04:26:00.099Z,99.99
2017-02-18T04:26:28.224Z,99.99
2017-02-18T04:26:56.367Z,99.99
2017-02-18T04:27:24.474Z,99.99
2017-02-18T04:27:52.655Z,99.99
2017-02-18T04:28:20.795Z,99.99
2017-02-18T04:28:48.828Z,99.99
2017-02-18T04:29:16.945Z,99.99
2017-02-18T04:29:45.122Z,99.99
2017-02-18T04:30:13.385Z,99.99
2017-02-18T04:30:41.580Z,99.99
2017-02-18T04:31:09.693Z,99.99
2017-02-18T04:31:37.901Z,99.99
2017-02-18T04:32:05.914Z,99.99
2017-02-18T04:32:34.055Z,99.99
2017-02-18T04:33:02.286Z,99.99
2017-02-18T04:33:30.429Z,99.99
2017-02-18T04:33:58.612Z,99.99
2017-02-18T04:34:26.767Z,99.99
2017-02-18T04:34:54.956Z,99.99
2017-02-18T04:35:23.188Z,99.99
2017-02-18T04:36:46.041Z,99.99
2017-02-18T04:37:14.273Z,99.99
2017-02-18T04:37:42.457Z,99.99
2017-02-18T04:38:10.580Z,99.99
2017-02-18T04:38:38.750Z,99.99
2017-02-18T04:39:06.908Z,99.99
2017-02-18T04:39:35.001Z,99.99
2017-02-18T04:40:03.264Z,99.99
2017-02-18T04:40:31.404Z,99.99
2017-02-18T04:40:59.538Z,99.99
2017-02-18T04:41:27.630Z,99.99
2017-02-18T04:41:55.853Z,99.99
2017-02-18T04:42:23.974Z,99.99
2017-02-18T04:42:51.997Z,99.99
2017-02-18T04:43:20.221Z,99.99
2017-02-18T04:43:48.318Z,99.99
2017-02-18T04:44:16.347Z,99.99
2017-02-18T04:44:44.328Z,99.99
2017-02-18T04:45:12.655Z,99.99
2017-02-18T04:45:40.833Z,99.99
2017-02-18T04:46:09.025Z,99.99
2017-02-18T04:46:37.113Z,99.99
2017-02-18T04:47:05.227Z,99.99
2017-02-18T04:47:33.279Z,99.99
2017-02-18T04:48:01.456Z,99.99
2017-02-18T04:48:29.620Z,99.99
2017-02-18T04:48:57.889Z,99.99
2017-02-18T04:49:25.856Z,99.99
2017-02-18T04:49:53.931Z,99.99
2017-02-18T04:50:22.155Z,99.99
2017-02-18T04:50:50.403Z,99.99
2017-02-18T04:51:18.642Z,99.99
2017-02-18T04:51:46.759Z,99.99
2017-02-18T04:52:14.816Z,99.99
2017-02-18T04:52:42.814Z,99.99
2017-02-18T04:53:10.882Z,99.99
2017-02-18T04:53:39.018Z,99.99
2017-02-18T04:54:07.243Z,99.99
2017-02-18T04:54:35.458Z,99.99
2017-02-18T04:55:03.718Z,99.99
2017-02-18T04:55:31.977Z,99.99
2017-02-18T04:56:00.210Z,99.99
2017-02-18T04:56:28.423Z,99.99
2017-02-18T04:56:56.532Z,99.99
2017-02-18T04:57:24.743Z,99.99
2017-02-18T04:57:52.831Z,99.99
2017-02-18T04:58:21.102Z,99.99
2017-02-18T04:58:49.159Z,99.99
2017-02-18T04:59:17.253Z,99.99
2017-02-18T04:59:45.435Z,99.99
2017-02-18T05:00:13.655Z,99.99
2017-02-18T05:00:41.980Z,99.99
2017-02-18T05:01:10.092Z,99.99
2017-02-18T05:01:38.115Z,99.99
2017-02-18T05:02:06.219Z,99.99
2017-02-18T05:02:34.346Z,99.99
2017-02-18T05:03:02.530Z,99.99
2017-02-18T05:03:30.560Z,99.99
2017-02-18T05:03:58.610Z,99.99
2017-02-18T05:04:26.828Z,99.99
2017-02-18T05:04:54.922Z,99.99
2017-02-18T05:05:23.269Z,99.99
2017-02-18T05:05:51.269Z,99.99
2017-02-18T05:06:19.388Z,99.99
2017-02-18T05:06:47.492Z,99.99
2017-02-18T05:07:15.501Z,99.99
2017-02-18T05:07:43.642Z,99.99
2017-02-18T05:08:11.879Z,99.99
2017-02-18T05:08:40.077Z,99.99
2017-02-18T05:09:08.198Z,99.99
2017-02-18T05:09:36.321Z,99.99
2017-02-18T05:10:04.285Z,99.99
2017-02-18T05:10:32.333Z,99.99
2017-02-18T05:11:00.598Z,99.99
2017-02-18T05:11:28.597Z,99.99
2017-02-18T05:11:56.727Z,99.99
2017-02-18T05:12:24.937Z,99.99
2017-02-18T05:12:53.156Z,99.99
2017-02-18T05:13:21.121Z,99.99
2017-02-18T05:13:49.273Z,99.99
2017-02-18T05:14:17.248Z,99.99
2017-02-18T05:14:45.514Z,99.99
2017-02-18T05:15:13.701Z,99.99
2017-02-18T05:15:41.999Z,99.99
2017-02-18T05:16:10.120Z,99.99
2017-02-18T05:16:38.099Z,99.99
2017-02-18T05:17:06.151Z,99.99
2017-02-18T05:17:34.249Z,99.99
2017-02-18T05:18:02.322Z,99.99
2017-02-18T05:18:30.539Z,99.99
2017-02-18T05:18:58.701Z,99.99
2017-02-18T05:19:26.736Z,99.99
2017-02-18T05:19:54.674Z,99.99
2017-02-18T05:20:22.780Z,99.99
2017-02-18T05:20:50.912Z,99.99
2017-02-18T05:21:19.013Z,99.99
2017-02-18T05:21:46.998Z,99.99
2017-02-18T05:22:15.230Z,99.99
2017-02-18T05:22:43.420Z,99.99
2017-02-18T05:23:11.495Z,99.99
2017-02-18T05:23:39.592Z,99.99
2017-02-18T05:24:07.816Z,99.99
2017-02-18T05:24:36.003Z,99.99
2017-02-18T05:25:04.137Z,99.99
2017-02-18T05:25:32.395Z,99.99
2017-02-18T05:26:00.605Z,99.99
2017-02-18T05:26:28.735Z,99.99
2017-02-18T05:26:56.868Z,99.99
2017-02-18T05:27:24.981Z,99.99
2017-02-18T05:27:53.258Z,99.99
2017-02-18T05:28:21.381Z,99.99
2017-02-18T05:28:49.523Z,99.99
2017-02-18T05:29:17.688Z,99.99
2017-02-18T05:29:45.910Z,99.99
2017-02-18T05:30:14.097Z,99.99
2017-02-18T05:30:42.246Z,99.99
2017-02-18T05:31:10.241Z,99.99
2017-02-18T05:31:38.263Z,99.99
2017-02-18T05:32:06.346Z,99.99
2017-02-18T05:32:34.503Z,99.99
2017-02-18T05:33:02.657Z,99.99
2017-02-18T05:33:30.789Z,99.99
2017-02-18T05:33:58.825Z,99.99
2017-02-18T05:34:26.907Z,99.99
2017-02-18T05:34:55.089Z,99.99
2017-02-18T05:35:23.300Z,99.99
2017-02-18T05:35:51.536Z,99.99
2017-02-18T05:36:19.576Z,99.99
2017-02-18T05:36:47.614Z,99.99
2017-02-18T05:37:15.820Z,99.99
2017-02-18T05:37:43.901Z,99.99
2017-02-18T05:38:12.068Z,99.99
2017-02-18T05:38:40.109Z,99.99
2017-02-18T05:39:08.253Z,99.99
2017-02-18T05:39:36.434Z,99.99
2017-02-18T05:40:04.655Z,99.99
2017-02-18T05:40:32.720Z,99.99
2017-02-18T05:41:01.172Z,99.99
2017-02-18T05:41:29.327Z,99.99
2017-02-18T05:41:57.550Z,99.99
2017-02-18T05:42:25.676Z,99.99
2017-02-18T05:42:53.832Z,99.99
2017-02-18T05:43:21.834Z,99.99
2017-02-18T05:43:50.056Z,99.99
2017-02-18T05:44:17.960Z,99.99
2017-02-18T05:44:45.911Z,99.99
2017-02-18T05:45:14.164Z,99.99
2017-02-18T05:45:42.373Z,99.99
2017-02-18T05:46:10.692Z,99.99
2017-02-18T05:46:38.909Z,99.99
2017-02-18T05:47:06.803Z,99.99
2017-02-18T05:47:34.891Z,99.99
2017-02-18T05:48:03.196Z,99.99
2017-02-18T05:48:31.342Z,99.99
2017-02-18T05:48:59.503Z,99.99
2017-02-18T05:49:27.542Z,99.99
2017-02-18T05:49:55.759Z,99.99
2017-02-18T05:50:23.935Z,99.99
2017-02-18T05:50:52.120Z,99.99
2017-02-18T05:51:20.333Z,99.99
2017-02-18T05:51:48.359Z,99.99
2017-02-18T05:52:16.579Z,99.99
2017-02-18T05:52:44.621Z,99.99
2017-02-18T05:53:12.839Z,99.99
2017-02-18T05:53:41.073Z,99.99
2017-02-18T05:54:09.216Z,99.99
2017-02-18T05:54:37.409Z,99.99
2017-02-18T05:55:05.759Z,99.99
2017-02-18T05:55:33.981Z,99.99
2017-02-18T05:56:02.155Z,99.99
2017-02-18T05:56:30.183Z,99.99
2017-02-18T05:56:58.337Z,99.99
2017-02-18T05:57:26.488Z,99.99
2017-02-18T05:57:54.716Z,99.99
2017-02-18T05:58:22.858Z,99.99
2017-02-18T05:58:51.066Z,99.99
2017-02-18T05:59:19.274Z,99.99
2017-02-18T05:59:47.470Z,99.99
2017-02-18T06:00:15.528Z,99.99
2017-02-18T06:00:43.765Z,99.99
2017-02-18T06:01:11.909Z,99.99
2017-02-18T06:01:39.946Z,99.99
2017-02-18T06:02:07.906Z,99.99
2017-02-18T06:02:35.958Z,99.99
2017-02-18T06:03:04.110Z,99.99
2017-02-18T06:03:32.210Z,99.99
2017-02-18T06:04:00.330Z,99.99
2017-02-18T06:04:28.501Z,99.99
2017-02-18T06:04:56.664Z,99.99